Orient, WA

7:18 PM PDT on August 28, 2016 (GMT -0700)
IBCGRAND2 | | Change Station

Elev 1686 ft 49.03 °N, 118.45 °W | Updated 3 minutes ago

Clear
Clear
77.2 °F
Feels Like 78 °F
N
1.0
Wind Variable Wind from West
Gusts 3.0 mph

Today
High -- | Low -- °F
--% Chance of Precip.
Yesterday
High -- | Low -- °F
Precip. -- in
Pressure 29.99 in
Visibility 10.0 miles
Clouds Clear
Heat Index 78 °F
Dew Point 42 °F
Humidity 29%
Rainfall 0.00 in
Snow Depth Not available.
6:04 AM 7:41 PM
Waning Crescent, 12% visible
METAR KOMK 290153Z AUTO 13004KT 10SM CLR 27/01 A3001 RMK AO2 SLP155 T02670011 $
Pressure 29.99 in
Visibility 10.0 miles
Clouds Clear
Heat Index 78 °F
Dew Point 42 °F
Humidity 29%
Rainfall 0.00 in
Snow Depth Not available.
6:04 AM 7:41 PM
Waning Crescent, 12% visible
METAR KOMK 290153Z AUTO 13004KT 10SM CLR 27/01 A3001 RMK AO2 SLP155 T02670011 $

10-Day Weather Forecast

Almanac

Astronomy

Aug. 28, 2016 Rise Set
Actual Time
Civil Twilight
Nautical Twilight
Astronomical Twilight
Moon
Length of Visible Light
Length of Day
Tomorrow will be .
, % of the Moon is Illuminated

Today's Extremes

State Highs State Lows

Community

WunderPhotos

Upload Photos

1,935,771 photos uploaded!

WunderBlog® & News

Nearby

Air Quality

  Air Quality AQ Index Pollutant
Not available.

Snow Depth

Station Depth Elevation

Earthquake Activity

City Distance Mag. Time & Date
Minimum magnitude displayed is 2.5.

Coastal Water Temperatures

Place Temperature

Stations

Nearby Weather Stations

Station Location Temp. Windchill Dew Point Humidity Wind Precip. Elev Updated Type
                   

Watches & Warnings

There are currently no watches in effect.